createdAt,value
2022-10-03T00:00:00.859Z,97924.44
2022-10-03T00:02:02.207Z,97931.19
2022-10-03T00:04:03.613Z,97930.38
2022-10-03T00:06:04.891Z,97927.84
2022-10-03T00:08:06.177Z,97944.09
2022-10-03T00:10:07.503Z,97927.97
2022-10-03T00:12:08.827Z,97935.66
2022-10-03T00:14:10.083Z,97941.66
2022-10-03T00:16:11.434Z,97943.41
2022-10-03T00:18:13.124Z,97946.88
2022-10-03T00:20:14.409Z,97951.16
2022-10-03T00:22:18.325Z,97946.09
2022-10-03T00:24:19.598Z,97951.19
2022-10-03T00:26:32.772Z,97950.41
2022-10-03T00:28:35.122Z,97957.22
2022-10-03T00:30:36.423Z,97953.00
2022-10-03T00:32:43.172Z,97959.81
2022-10-03T00:34:44.434Z,97967.50
2022-10-03T00:36:46.489Z,97961.59
2022-10-03T00:38:47.756Z,97956.50
2022-10-03T00:40:49.037Z,97966.69
2022-10-03T00:42:50.526Z,97959.81
2022-10-03T00:44:52.331Z,97952.94
2022-10-03T00:46:53.837Z,97970.72
2022-10-03T00:48:55.183Z,97965.63
2022-10-03T00:50:56.530Z,97975.03
2022-10-03T00:52:57.855Z,97976.75
2022-10-03T00:54:59.126Z,97968.28
2022-10-03T00:57:00.736Z,97976.00
2022-10-03T00:59:02.589Z,97973.50
2022-10-03T01:01:05.181Z,97981.19
2022-10-03T01:03:06.643Z,97976.97
2022-10-03T01:05:08.335Z,97975.31
2022-10-03T01:07:10.366Z,97971.94
2022-10-03T01:09:11.858Z,97977.94
2022-10-03T01:11:13.134Z,97977.88
2022-10-03T01:13:14.407Z,97983.00
2022-10-03T01:15:15.732Z,97982.16
2022-10-03T01:17:17.392Z,97983.84
2022-10-03T01:19:19.243Z,97977.88
2022-10-03T01:21:20.678Z,97986.28
2022-10-03T01:23:21.951Z,97979.28
2022-10-03T01:25:23.227Z,97978.66
2022-10-03T01:27:24.572Z,97990.66
2022-10-03T01:29:44.726Z,97988.09
2022-10-03T01:31:46.027Z,97983.78
2022-10-03T01:33:47.356Z,97979.53
2022-10-03T01:35:48.695Z,97998.28
2022-10-03T01:37:51.343Z,97989.78
2022-10-03T01:39:52.617Z,97993.25
2022-10-03T01:41:53.947Z,97984.81
2022-10-03T01:43:55.663Z,97986.53
2022-10-03T01:45:56.968Z,97986.53
2022-10-03T01:47:58.516Z,97979.75
2022-10-03T01:49:59.790Z,97984.03
2022-10-03T01:52:01.102Z,97982.38
2022-10-03T01:54:02.416Z,97992.59
2022-10-03T01:56:04.666Z,97988.38
2022-10-03T01:58:05.943Z,97978.19
2022-10-03T02:00:08.645Z,97991.72
2022-10-03T02:02:10.184Z,97989.13
2022-10-03T02:04:11.557Z,97990.69
2022-10-03T02:06:12.862Z,98002.50
2022-10-03T02:08:14.744Z,98001.59
2022-10-03T02:10:17.095Z,97997.31
2022-10-03T02:12:18.382Z,98025.38
2022-10-03T02:14:19.646Z,97997.28
2022-10-03T02:16:20.993Z,97995.47
2022-10-03T02:18:23.490Z,98002.22
2022-10-03T02:20:25.671Z,98003.91
2022-10-03T02:22:28.491Z,97997.03
2022-10-03T02:24:29.814Z,98005.50
2022-10-03T02:26:31.324Z,98001.13
2022-10-03T02:28:32.725Z,97996.00
2022-10-03T02:30:33.994Z,98001.97
2022-10-03T02:32:35.294Z,98007.06
2022-10-03T02:34:36.550Z,98001.97
2022-10-03T02:36:37.871Z,98007.06
2022-10-03T02:38:39.207Z,98009.63
2022-10-03T02:40:40.484Z,98007.06
2022-10-03T02:42:41.816Z,98007.97
2022-10-03T02:44:43.070Z,98001.97
2022-10-03T02:46:44.338Z,98012.22
2022-10-03T02:48:46.956Z,98017.34
2022-10-03T02:50:48.250Z,98019.03
2022-10-03T02:52:49.565Z,98015.63
2022-10-03T02:54:50.883Z,98017.28
2022-10-03T02:56:52.161Z,98020.69
2022-10-03T02:58:54.488Z,98021.50
2022-10-03T03:00:55.805Z,98018.13
2022-10-03T03:02:58.890Z,98019.78
2022-10-03T03:05:00.163Z,98004.50
2022-10-03T03:07:01.426Z,98009.56
2022-10-03T03:09:02.881Z,98006.16
2022-10-03T03:11:04.154Z,98023.25
2022-10-03T03:13:07.101Z,98028.34
2022-10-03T03:15:08.531Z,98017.34
2022-10-03T03:17:09.832Z,98019.13
2022-10-03T03:19:11.167Z,98019.22
2022-10-03T03:21:12.431Z,98025.25
2022-10-03T03:23:13.696Z,98020.97
2022-10-03T03:25:14.973Z,98018.44
2022-10-03T03:27:16.278Z,98024.34
2022-10-03T03:29:17.575Z,98026.03
2022-10-03T03:31:19.018Z,98023.38
2022-10-03T03:33:21.949Z,98023.38
2022-10-03T03:35:23.704Z,98025.91
2022-10-03T03:37:24.973Z,98025.91
2022-10-03T03:39:26.307Z,98036.13
2022-10-03T03:41:27.842Z,98042.91
2022-10-03T03:43:29.142Z,98037.78
2022-10-03T03:45:30.979Z,98035.22
2022-10-03T03:47:33.047Z,98039.47
2022-10-03T03:49:35.218Z,98041.19
2022-10-03T03:51:36.833Z,98041.97
2022-10-03T03:53:38.458Z,98052.97
2022-10-03T03:55:40.951Z,98041.06
2022-10-03T03:57:42.211Z,98042.78
2022-10-03T03:59:43.484Z,98048.66
2022-10-03T04:01:46.044Z,98052.91
2022-10-03T04:03:47.409Z,98053.72
2022-10-03T04:05:48.682Z,98043.56
2022-10-03T04:07:50.448Z,98050.41
2022-10-03T04:09:51.723Z,98046.16
2022-10-03T04:11:52.990Z,98045.38
2022-10-03T04:13:54.743Z,98048.84
2022-10-03T04:15:56.143Z,98044.66
2022-10-03T04:18:16.116Z,98043.78
2022-10-03T04:20:17.422Z,98042.94
2022-10-03T04:22:18.742Z,98038.69
2022-10-03T04:24:20.815Z,98044.63
2022-10-03T04:26:22.091Z,98043.78
2022-10-03T04:28:26.804Z,98052.25
2022-10-03T04:30:29.802Z,98045.38
2022-10-03T04:32:33.645Z,98042.84
2022-10-03T04:34:34.959Z,98054.75
2022-10-03T04:36:36.225Z,98055.59
2022-10-03T04:38:37.499Z,98053.94
2022-10-03T04:40:38.819Z,98057.28
2022-10-03T04:42:40.987Z,98052.25
2022-10-03T04:44:42.335Z,98060.69
2022-10-03T04:46:43.599Z,98063.25
2022-10-03T04:48:44.886Z,98064.97
2022-10-03T04:50:46.215Z,98063.25
2022-10-03T04:52:47.475Z,98058.19
2022-10-03T04:54:49.311Z,98055.66
2022-10-03T04:56:50.591Z,98059.13
2022-10-03T04:58:51.900Z,98058.22
2022-10-03T05:00:53.705Z,98070.16
2022-10-03T05:02:55.145Z,98066.78
2022-10-03T05:04:56.451Z,98069.34
2022-10-03T05:06:57.740Z,98062.53
2022-10-03T05:08:59.637Z,98078.69
2022-10-03T05:11:00.978Z,98080.41
2022-10-03T05:13:02.310Z,98086.41
2022-10-03T05:15:03.623Z,98081.25
2022-10-03T05:17:06.377Z,98093.16
2022-10-03T05:19:07.862Z,98094.88
2022-10-03T05:21:09.147Z,98103.38
2022-10-03T05:23:10.401Z,98103.38
2022-10-03T05:25:11.679Z,98099.97
2022-10-03T05:27:12.961Z,98110.19
2022-10-03T05:29:15.124Z,98094.91
2022-10-03T05:31:16.423Z,98102.63
2022-10-03T05:33:17.774Z,98095.81
2022-10-03T05:35:19.104Z,98102.47
2022-10-03T05:37:20.613Z,98101.63
2022-10-03T05:39:21.857Z,98105.94
2022-10-03T05:41:26.073Z,98105.06
2022-10-03T05:43:28.159Z,98100.84
2022-10-03T05:45:30.527Z,98100.78
2022-10-03T05:47:48.975Z,98103.31
2022-10-03T05:49:50.302Z,98110.03
2022-10-03T05:51:51.567Z,98109.97
2022-10-03T05:53:53.647Z,98103.13
2022-10-03T05:55:54.914Z,98110.78
2022-10-03T05:57:56.230Z,98111.66
2022-10-03T05:59:59.230Z,98115.94
2022-10-03T06:02:00.550Z,98111.72
2022-10-03T06:04:05.937Z,98117.63
2022-10-03T06:06:08.050Z,98125.28
2022-10-03T06:08:09.361Z,98124.44
2022-10-03T06:10:10.655Z,98122.75
2022-10-03T06:12:14.178Z,98126.16
2022-10-03T06:14:15.498Z,98138.06
2022-10-03T06:16:16.876Z,98123.66
2022-10-03T06:18:18.198Z,98134.78
2022-10-03T06:20:19.924Z,98136.50
2022-10-03T06:22:21.294Z,98131.47
2022-10-03T06:24:22.608Z,98128.97
2022-10-03T06:26:23.893Z,98124.75
2022-10-03T06:28:25.370Z,98134.13
2022-10-03T06:30:26.749Z,98136.69
2022-10-03T06:32:28.094Z,98130.41
2022-10-03T06:34:29.492Z,98129.53
2022-10-03T06:36:30.780Z,98131.34
2022-10-03T06:38:32.059Z,98131.56
2022-10-03T06:40:33.364Z,98134.28
2022-10-03T06:42:34.622Z,98115.63
2022-10-03T06:44:35.915Z,98132.72
2022-10-03T06:46:37.300Z,98131.03
2022-10-03T06:48:38.639Z,98138.72
2022-10-03T06:50:40.026Z,98128.53
2022-10-03T06:52:41.364Z,98136.25
2022-10-03T06:54:42.675Z,98141.38
2022-10-03T06:56:47.646Z,98154.16
2022-10-03T06:58:51.131Z,98151.66
2022-10-03T07:00:52.530Z,98153.38
2022-10-03T07:02:53.943Z,98146.63
2022-10-03T07:04:55.270Z,98147.53
2022-10-03T07:06:56.542Z,98152.69
2022-10-03T07:08:58.335Z,98160.38
2022-10-03T07:10:59.624Z,98157.03
2022-10-03T07:13:00.887Z,98150.25
2022-10-03T07:15:02.199Z,98150.25
2022-10-03T07:17:04.249Z,98157.91
2022-10-03T07:19:05.609Z,98153.63
2022-10-03T07:21:06.923Z,98162.13
2022-10-03T07:23:08.215Z,98158.75
2022-10-03T07:25:09.496Z,98168.13
2022-10-03T07:27:11.716Z,98169.84
2022-10-03T07:29:13.099Z,98165.00
2022-10-03T07:31:14.402Z,98163.78
2022-10-03T07:33:15.760Z,98174.78
2022-10-03T07:35:17.143Z,98175.84
2022-10-03T07:37:37.083Z,98178.59
2022-10-03T07:39:38.658Z,98050.13
2022-10-03T07:41:40.270Z,98195.06
2022-10-03T07:43:41.818Z,98188.34
2022-10-03T07:45:43.427Z,98195.19
2022-10-03T07:47:45.659Z,98185.91
2022-10-03T07:49:46.979Z,98054.69
2022-10-03T07:51:48.274Z,98198.75
2022-10-03T07:53:49.798Z,98203.88
2022-10-03T07:55:51.108Z,98203.91
2022-10-03T07:57:52.471Z,98201.34
2022-10-03T07:59:53.828Z,98196.25
2022-10-03T08:01:56.104Z,98192.84
2022-10-03T08:03:57.685Z,98199.66
2022-10-03T08:05:58.979Z,98207.31
2022-10-03T08:08:00.683Z,98218.31
2022-10-03T08:10:01.984Z,98211.53
2022-10-03T08:12:03.290Z,98213.22
2022-10-03T08:14:04.830Z,98214.88
2022-10-03T08:16:06.181Z,98220.88
2022-10-03T08:18:07.546Z,98212.16
2022-10-03T08:20:08.853Z,98212.50
2022-10-03T08:22:10.170Z,98217.00
2022-10-03T08:24:11.455Z,98206.00
2022-10-03T08:26:12.782Z,98214.13
2022-10-03T08:28:14.114Z,98202.97
2022-10-03T08:30:15.448Z,98220.16
2022-10-03T08:32:17.758Z,98208.38
2022-10-03T08:34:19.074Z,98215.31
2022-10-03T08:36:20.390Z,98218.81
2022-10-03T08:38:24.975Z,98221.41
2022-10-03T08:40:29.566Z,98221.44
2022-10-03T08:42:30.885Z,98224.91
2022-10-03T08:44:32.155Z,98222.34
2022-10-03T08:46:33.512Z,98218.09
2022-10-03T08:48:34.867Z,98223.22
2022-10-03T08:50:36.129Z,98216.44
2022-10-03T08:52:37.471Z,98223.28
2022-10-03T08:54:38.801Z,98218.19
2022-10-03T08:56:40.070Z,98220.72
2022-10-03T08:58:41.378Z,98208.03
2022-10-03T09:00:42.716Z,98212.28
2022-10-03T09:02:44.057Z,98213.97
2022-10-03T09:04:45.542Z,98215.63
2022-10-03T09:07:12.111Z,98213.94
2022-10-03T09:09:08.108Z,98217.28
2022-10-03T09:11:09.386Z,98227.44
2022-10-03T09:13:10.645Z,98218.91
2022-10-03T09:15:12.068Z,98220.56
2022-10-03T09:17:13.338Z,98229.03
2022-10-03T09:19:16.739Z,98221.31
2022-10-03T09:21:18.182Z,98229.78
2022-10-03T09:23:19.507Z,98228.13
2022-10-03T09:25:21.039Z,98231.44
2022-10-03T09:27:22.985Z,98228.00
2022-10-03T09:29:24.315Z,98227.19
2022-10-03T09:31:25.634Z,98232.34
2022-10-03T09:33:28.363Z,98227.28
2022-10-03T09:35:29.683Z,98223.78
2022-10-03T09:37:31.306Z,98225.03
2022-10-03T09:39:32.605Z,98234.69
2022-10-03T09:41:33.868Z,98228.53
2022-10-03T09:43:35.154Z,98236.53
2022-10-03T09:45:37.057Z,98227.91
2022-10-03T09:47:38.767Z,98238.44
2022-10-03T09:49:40.083Z,98239.81
2022-10-03T09:51:41.529Z,98244.72
2022-10-03T09:53:43.526Z,98243.78
2022-10-03T09:55:46.048Z,98246.78
2022-10-03T09:57:47.326Z,98251.28
2022-10-03T09:59:48.608Z,98243.78
2022-10-03T10:01:51.739Z,98249.00
2022-10-03T10:03:53.046Z,98252.47
2022-10-03T10:05:54.471Z,98246.56
2022-10-03T10:07:55.751Z,98258.50
2022-10-03T10:09:57.057Z,98250.91
2022-10-03T10:11:58.386Z,98249.28
2022-10-03T10:14:08.273Z,98238.22
2022-10-03T10:16:10.013Z,98246.41
2022-10-03T10:18:11.455Z,98247.25
2022-10-03T10:20:12.795Z,98234.69
2022-10-03T10:22:14.079Z,98241.59
2022-10-03T10:24:15.367Z,98238.31
2022-10-03T10:26:16.647Z,98257.13
2022-10-03T10:28:18.168Z,98247.81
2022-10-03T10:30:19.457Z,98246.16
2022-10-03T10:32:21.884Z,98251.13
2022-10-03T10:34:23.270Z,98249.38
2022-10-03T10:36:25.103Z,98240.91
2022-10-03T10:38:26.382Z,98250.28
2022-10-03T10:40:28.451Z,98243.47
2022-10-03T10:42:29.826Z,98240.13
2022-10-03T10:44:31.134Z,98241.84
2022-10-03T10:46:33.037Z,98248.69
2022-10-03T10:48:34.430Z,98242.75
2022-10-03T10:50:35.943Z,98248.69
2022-10-03T10:52:37.232Z,98240.25
2022-10-03T10:54:38.554Z,98096.19
2022-10-03T10:56:42.597Z,98248.78
2022-10-03T10:58:44.420Z,98256.44
2022-10-03T11:00:47.017Z,98255.56
2022-10-03T11:02:48.562Z,98253.84
2022-10-03T11:04:49.920Z,98238.53
2022-10-03T11:06:53.418Z,98238.50
2022-10-03T11:08:55.009Z,98242.78
2022-10-03T11:10:56.323Z,98253.88
2022-10-03T11:12:58.848Z,98250.53
2022-10-03T11:15:00.181Z,98248.91
2022-10-03T11:17:01.562Z,98248.91
2022-10-03T11:19:02.847Z,98247.19
2022-10-03T11:21:04.498Z,98249.75
2022-10-03T11:23:05.777Z,98259.94
2022-10-03T11:25:07.600Z,98257.38
2022-10-03T11:27:08.995Z,98250.53
2022-10-03T11:29:10.300Z,98264.78
2022-10-03T11:31:11.671Z,98267.72
2022-10-03T11:33:13.068Z,98266.09
2022-10-03T11:35:14.553Z,98258.19
2022-10-03T11:37:16.099Z,98260.66
2022-10-03T11:39:17.403Z,98252.63
2022-10-03T11:41:18.703Z,98265.66
2022-10-03T11:43:19.983Z,98264.78
2022-10-03T11:45:21.430Z,98268.88
2022-10-03T11:47:22.706Z,98274.44
2022-10-03T11:49:24.078Z,98250.38
2022-10-03T11:51:25.359Z,98262.09
2022-10-03T11:53:26.964Z,98273.91
2022-10-03T11:55:28.295Z,98250.69
2022-10-03T11:57:30.311Z,98257.13
2022-10-03T11:59:31.587Z,98267.63
2022-10-03T12:01:32.875Z,98254.91
2022-10-03T12:03:34.190Z,98264.28
2022-10-03T12:05:35.477Z,98263.47
2022-10-03T12:07:58.381Z,98257.44
2022-10-03T12:10:00.017Z,98259.00
2022-10-03T12:12:01.291Z,98255.31
2022-10-03T12:14:07.342Z,98262.19
2022-10-03T12:16:11.959Z,98254.34
2022-10-03T12:18:13.278Z,98261.88
2022-10-03T12:20:15.699Z,98261.84
2022-10-03T12:22:17.236Z,98256.09
2022-10-03T12:24:18.514Z,98267.72
2022-10-03T12:26:19.820Z,98264.47
2022-10-03T12:28:21.491Z,98271.25
2022-10-03T12:30:22.855Z,98259.03
2022-10-03T12:32:24.227Z,98271.03
2022-10-03T12:34:25.506Z,98278.75
2022-10-03T12:36:26.822Z,98261.06
2022-10-03T12:38:28.094Z,98275.38
2022-10-03T12:40:29.387Z,98276.41
2022-10-03T12:42:30.897Z,98279.09
2022-10-03T12:44:32.218Z,98275.78
2022-10-03T12:46:33.527Z,98287.78
2022-10-03T12:48:34.812Z,98287.78
2022-10-03T12:50:36.690Z,98286.94
2022-10-03T12:52:38.293Z,98277.63
2022-10-03T12:54:39.573Z,98281.91
2022-10-03T12:56:42.087Z,98280.06
2022-10-03T12:58:43.563Z,98277.03
2022-10-03T13:00:46.130Z,98268.38
2022-10-03T13:02:47.682Z,98274.53
2022-10-03T13:04:49.638Z,98278.13
2022-10-03T13:07:03.417Z,98276.56
2022-10-03T13:09:05.519Z,98148.81
2022-10-03T13:11:06.802Z,98277.56
2022-10-03T13:13:08.289Z,98277.63
2022-10-03T13:15:09.577Z,98273.38
2022-10-03T13:17:11.717Z,98271.72
2022-10-03T13:19:13.039Z,98276.00
2022-10-03T13:21:40.663Z,98270.97
2022-10-03T13:23:35.928Z,98272.53
2022-10-03T13:25:37.258Z,98269.50
2022-10-03T13:27:39.374Z,98270.06
2022-10-03T13:29:40.909Z,98262.56
2022-10-03T13:31:43.427Z,98261.91
2022-10-03T13:33:44.783Z,98267.91
2022-10-03T13:36:05.625Z,98277.44
2022-10-03T13:38:07.699Z,98269.75
2022-10-03T13:40:09.294Z,98260.28
2022-10-03T13:42:10.670Z,98261.28
2022-10-03T13:44:11.936Z,98248.66
2022-10-03T13:46:13.319Z,98256.41
2022-10-03T13:48:14.831Z,98259.88
2022-10-03T13:50:16.577Z,98260.75
2022-10-03T13:52:18.484Z,98255.66
2022-10-03T13:54:21.461Z,98254.84
2022-10-03T13:56:22.763Z,98265.97
2022-10-03T13:58:24.080Z,98283.84
2022-10-03T14:00:26.584Z,98293.25
2022-10-03T14:02:27.889Z,98289.84
2022-10-03T14:04:29.238Z,98294.22
2022-10-03T14:06:35.345Z,98296.00
2022-10-03T14:08:38.952Z,98292.31
2022-10-03T14:10:40.502Z,98293.16
2022-10-03T14:12:55.466Z,98293.41
2022-10-03T14:14:57.475Z,98288.72
2022-10-03T14:17:00.684Z,98299.31
2022-10-03T14:19:02.029Z,98295.56
2022-10-03T14:21:03.334Z,98284.97
2022-10-03T14:23:05.794Z,98291.16
2022-10-03T14:25:07.103Z,98290.34
2022-10-03T14:27:08.385Z,98276.75
2022-10-03T14:29:09.654Z,98281.38
2022-10-03T14:31:11.000Z,98287.75
2022-10-03T14:33:13.385Z,98283.44
2022-10-03T14:35:14.871Z,98281.19
2022-10-03T14:37:16.204Z,98284.59
2022-10-03T14:39:17.529Z,98284.78
2022-10-03T14:41:18.907Z,98278.81
2022-10-03T14:43:20.308Z,98273.84
2022-10-03T14:45:21.639Z,98281.72
2022-10-03T14:47:23.970Z,98275.41
2022-10-03T14:49:52.160Z,98285.09
2022-10-03T14:51:47.587Z,98279.03
2022-10-03T14:53:48.902Z,98280.84
2022-10-03T14:55:50.188Z,98284.06
2022-10-03T14:58:11.149Z,98277.91
2022-10-03T15:00:12.712Z,98282.97
2022-10-03T15:02:18.210Z,98285.66
2022-10-03T15:04:22.400Z,98289.72
2022-10-03T15:06:23.725Z,98289.56
2022-10-03T15:08:25.125Z,98286.00
2022-10-03T15:10:26.532Z,98295.00
2022-10-03T15:12:28.599Z,98284.34
2022-10-03T15:14:30.998Z,98284.34
2022-10-03T15:16:34.505Z,98286.47
2022-10-03T15:18:35.876Z,98291.78
2022-10-03T15:20:37.283Z,98285.88
2022-10-03T15:22:39.716Z,98283.66
2022-10-03T15:24:41.058Z,98292.47
2022-10-03T15:26:42.331Z,98293.56
2022-10-03T15:28:43.593Z,98301.16
2022-10-03T15:30:44.875Z,98304.19
2022-10-03T15:32:47.270Z,98291.69
2022-10-03T15:34:49.286Z,98298.22
2022-10-03T15:36:50.632Z,98290.75
2022-10-03T15:38:52.106Z,98293.91
2022-10-03T15:40:53.539Z,98283.03
2022-10-03T15:42:54.816Z,98283.53
2022-10-03T15:44:56.230Z,98280.44
2022-10-03T15:46:57.947Z,98286.78
2022-10-03T15:48:59.229Z,98293.41
2022-10-03T15:51:01.501Z,98292.81
2022-10-03T15:53:24.289Z,98284.75
2022-10-03T15:55:24.337Z,98275.09
2022-10-03T15:57:25.630Z,98275.53
2022-10-03T15:59:27.633Z,98272.59
2022-10-03T16:01:29.064Z,98272.22
2022-10-03T16:03:30.448Z,98267.50
2022-10-03T16:05:31.729Z,98268.41
2022-10-03T16:07:33.068Z,98270.75
2022-10-03T16:09:34.424Z,98277.69
2022-10-03T16:11:35.695Z,98143.19
2022-10-03T16:13:37.071Z,98275.25
2022-10-03T16:15:38.395Z,98263.59
2022-10-03T16:17:39.669Z,98262.88
2022-10-03T16:19:40.959Z,98263.06
2022-10-03T16:21:42.675Z,98261.56
2022-10-03T16:23:45.878Z,98259.00
2022-10-03T16:25:47.161Z,98259.00
2022-10-03T16:27:48.499Z,98258.75
2022-10-03T16:29:50.046Z,98263.81
2022-10-03T16:31:51.382Z,98252.00
2022-10-03T16:33:57.909Z,98265.69
2022-10-03T16:35:59.535Z,98253.63
2022-10-03T16:38:00.811Z,98261.94
2022-10-03T16:40:03.387Z,98256.09
2022-10-03T16:42:05.031Z,98150.38
2022-10-03T16:44:06.695Z,98256.09
2022-10-03T16:46:08.091Z,98255.97
2022-10-03T16:48:28.055Z,98250.50
2022-10-03T16:50:29.337Z,98252.88
2022-10-03T16:52:31.019Z,98247.19
2022-10-03T16:54:33.468Z,98260.19
2022-10-03T16:56:34.734Z,98256.56
2022-10-03T16:58:39.946Z,98256.13
2022-10-03T17:00:41.265Z,98257.63
2022-10-03T17:02:42.673Z,98269.34
2022-10-03T17:04:44.076Z,98259.81
2022-10-03T17:06:45.355Z,98255.06
2022-10-03T17:08:47.299Z,98255.41
2022-10-03T17:10:48.617Z,98257.16
2022-10-03T17:12:52.323Z,98258.81
2022-10-03T17:14:53.674Z,98256.69
2022-10-03T17:16:54.992Z,98260.97
2022-10-03T17:18:56.382Z,98266.81
2022-10-03T17:20:57.720Z,98270.47
2022-10-03T17:22:59.866Z,98275.22
2022-10-03T17:25:01.125Z,98276.88
2022-10-03T17:27:03.122Z,98281.72
2022-10-03T17:29:04.399Z,98276.63
2022-10-03T17:31:06.040Z,98274.06
2022-10-03T17:33:07.436Z,98280.88
2022-10-03T17:35:08.735Z,98272.34
2022-10-03T17:37:11.025Z,98282.28
2022-10-03T17:39:12.279Z,98281.97
2022-10-03T17:41:13.710Z,98275.41
2022-10-03T17:43:15.040Z,98282.34
2022-10-03T17:45:17.080Z,98283.25
2022-10-03T17:47:18.396Z,98287.66
2022-10-03T17:49:19.724Z,98275.41
2022-10-03T17:51:21.007Z,98280.00
2022-10-03T17:53:22.366Z,98287.81
2022-10-03T17:55:23.665Z,98286.19
2022-10-03T17:57:25.143Z,98277.78
2022-10-03T17:59:27.986Z,98280.34
2022-10-03T18:01:29.345Z,98281.25
2022-10-03T18:03:30.735Z,98277.06
2022-10-03T18:05:32.059Z,98284.75
2022-10-03T18:07:33.339Z,98280.50
2022-10-03T18:09:40.713Z,98282.22
2022-10-03T18:11:42.326Z,98274.59
2022-10-03T18:13:43.922Z,98272.09
2022-10-03T18:15:48.486Z,98278.09
2022-10-03T18:17:49.799Z,98274.38
2022-10-03T18:19:51.084Z,98278.53
2022-10-03T18:21:53.801Z,98278.31
2022-10-03T18:23:55.793Z,98270.81
2022-10-03T18:28:20.919Z,98264.91
2022-10-03T18:30:22.866Z,98263.84
2022-10-03T18:32:25.531Z,98268.09
2022-10-03T18:34:26.926Z,98261.28
2022-10-03T18:36:28.232Z,98262.53
2022-10-03T18:38:30.060Z,98263.28
2022-10-03T18:40:31.360Z,98251.03
2022-10-03T18:42:34.207Z,98264.38
2022-10-03T18:44:36.155Z,98261.56
2022-10-03T18:46:37.488Z,98264.31
2022-10-03T18:48:39.639Z,98266.09
2022-10-03T18:50:40.968Z,98264.34
2022-10-03T18:52:42.262Z,98263.44
2022-10-03T18:54:43.839Z,98271.84
2022-10-03T18:56:46.644Z,98265.84
2022-10-03T18:58:48.050Z,98269.28
2022-10-03T19:00:49.460Z,98271.91
2022-10-03T19:02:51.213Z,98267.41
2022-10-03T19:04:53.823Z,98265.16
2022-10-03T19:06:55.166Z,98263.66
2022-10-03T19:08:56.472Z,98266.69
2022-10-03T19:10:57.814Z,98267.78
2022-10-03T19:12:59.166Z,98272.13
2022-10-03T19:15:00.494Z,98267.09
2022-10-03T19:17:02.840Z,98258.63
2022-10-03T19:19:05.939Z,98261.16
2022-10-03T19:21:10.241Z,98261.16
2022-10-03T19:23:11.518Z,98275.19
2022-10-03T19:25:12.812Z,98279.06
2022-10-03T19:27:14.304Z,98266.34
2022-10-03T19:29:20.030Z,98274.63
2022-10-03T19:31:21.352Z,98279.59
2022-10-03T19:33:24.566Z,98270.53
2022-10-03T19:35:26.130Z,98270.63
2022-10-03T19:37:27.437Z,98263.88
2022-10-03T19:39:28.892Z,98270.75
2022-10-03T19:41:35.600Z,98268.00
2022-10-03T19:43:36.943Z,98266.09
2022-10-03T19:45:38.251Z,98266.09
2022-10-03T19:47:40.652Z,98255.91
2022-10-03T19:49:41.927Z,98267.38
2022-10-03T19:51:43.198Z,98261.63
2022-10-03T19:53:44.794Z,98266.28
2022-10-03T19:55:46.283Z,98262.47
2022-10-03T19:57:47.625Z,98263.28
2022-10-03T19:59:48.941Z,98268.34
2022-10-03T20:01:50.314Z,98274.41
2022-10-03T20:03:52.537Z,98265.84
2022-10-03T20:05:53.814Z,98287.50
2022-10-03T20:07:55.243Z,98267.97
2022-10-03T20:09:56.935Z,98276.22
2022-10-03T20:11:58.266Z,98281.28
2022-10-03T20:13:59.549Z,98273.16
2022-10-03T20:16:00.869Z,98272.91
2022-10-03T20:18:02.530Z,98269.38
2022-10-03T20:20:03.835Z,98260.00
2022-10-03T20:22:05.139Z,98261.72
2022-10-03T20:24:06.622Z,98264.31
2022-10-03T20:26:10.291Z,98263.47
2022-10-03T20:28:11.818Z,98267.72
2022-10-03T20:30:13.124Z,98265.22
2022-10-03T20:32:14.450Z,98266.13
2022-10-03T20:34:15.991Z,98265.34
2022-10-03T20:36:17.248Z,98263.63
2022-10-03T20:38:18.740Z,98264.50
2022-10-03T20:40:20.014Z,98269.59
2022-10-03T20:42:25.757Z,98267.09
2022-10-03T20:44:28.343Z,98261.22
2022-10-03T20:46:30.386Z,98264.66
2022-10-03T20:48:31.667Z,98268.09
2022-10-03T20:50:32.950Z,98265.59
2022-10-03T20:52:34.227Z,98263.97
2022-10-03T20:54:35.811Z,98268.25
2022-10-03T20:56:37.088Z,98271.72
2022-10-03T20:58:38.375Z,98265.75
2022-10-03T21:00:39.670Z,98263.22
2022-10-03T21:02:40.970Z,98267.50
2022-10-03T21:04:42.559Z,98264.91
2022-10-03T21:06:43.823Z,98125.16
2022-10-03T21:08:45.179Z,98260.75
2022-10-03T21:10:46.450Z,98254.00
2022-10-03T21:12:47.803Z,98257.41
2022-10-03T21:14:49.154Z,98272.81
2022-10-03T21:16:50.954Z,98259.25
2022-10-03T21:18:53.022Z,98255.91
2022-10-03T21:20:54.288Z,98265.31
2022-10-03T21:22:55.547Z,98276.38
2022-10-03T21:24:56.819Z,98290.88
2022-10-03T21:26:58.599Z,98292.59
2022-10-03T21:28:59.863Z,98281.63
2022-10-03T21:31:01.134Z,98292.63
2022-10-03T21:33:02.455Z,98284.16
2022-10-03T21:35:03.735Z,98291.84
2022-10-03T21:37:05.088Z,98287.59
2022-10-03T21:39:06.799Z,98273.97
2022-10-03T21:41:08.078Z,98276.50
2022-10-03T21:43:09.358Z,98286.66
2022-10-03T21:45:10.667Z,98275.56
2022-10-03T21:47:11.939Z,98258.50
2022-10-03T21:49:13.198Z,98270.41
2022-10-03T21:51:14.523Z,98262.72
2022-10-03T21:53:15.804Z,98254.16
2022-10-03T21:55:17.086Z,98245.63
2022-10-03T21:57:18.410Z,98244.78
2022-10-03T21:59:19.682Z,98269.53
2022-10-03T22:01:21.018Z,98255.06
2022-10-03T22:03:22.628Z,98251.69
2022-10-03T22:05:23.905Z,98256.84
2022-10-03T22:07:25.189Z,98260.31
2022-10-03T22:09:26.471Z,98253.53
2022-10-03T22:11:27.743Z,98261.19
2022-10-03T22:13:29.057Z,98264.56
2022-10-03T22:15:30.346Z,98267.13
2022-10-03T22:17:31.617Z,98262.06
2022-10-03T22:19:33.550Z,98259.53
2022-10-03T22:21:34.847Z,98263.81
2022-10-03T22:23:36.246Z,98260.41
2022-10-03T22:25:39.040Z,98263.84
2022-10-03T22:27:40.335Z,98257.03
2022-10-03T22:29:41.667Z,98260.44
2022-10-03T22:31:43.369Z,98257.03
2022-10-03T22:33:44.859Z,98252.75
2022-10-03T22:35:46.153Z,98263.81
2022-10-03T22:37:47.849Z,98267.25
2022-10-03T22:39:49.127Z,98269.84
2022-10-03T22:41:50.565Z,98262.19
2022-10-03T22:43:51.930Z,98254.56
2022-10-03T22:45:53.312Z,98253.72
2022-10-03T22:47:54.675Z,98260.59
2022-10-03T22:49:59.148Z,98258.88
2022-10-03T22:52:00.496Z,98259.72
2022-10-03T22:54:01.977Z,98249.56
2022-10-03T22:56:03.359Z,98252.16
2022-10-03T22:58:04.707Z,98254.63
2022-10-03T23:00:08.023Z,98260.53
2022-10-03T23:02:09.324Z,98250.31
2022-10-03T23:04:10.679Z,98259.69
2022-10-03T23:06:12.042Z,98248.63
2022-10-03T23:08:13.363Z,98253.72
2022-10-03T23:10:14.642Z,98251.97
2022-10-03T23:12:15.963Z,98248.53
2022-10-03T23:14:17.249Z,98248.50
2022-10-03T23:16:18.562Z,98251.03
2022-10-03T23:18:19.913Z,98248.44
2022-10-03T23:20:21.208Z,98257.78
2022-10-03T23:22:22.485Z,98262.00
2022-10-03T23:24:24.374Z,98257.75
2022-10-03T23:26:25.668Z,98256.09
2022-10-03T23:28:27.036Z,98250.97
2022-10-03T23:30:29.454Z,98256.13
2022-10-03T23:32:30.711Z,98247.63
2022-10-03T23:34:32.931Z,98244.28
2022-10-03T23:36:34.396Z,98247.69
2022-10-03T23:38:36.143Z,98253.66
2022-10-03T23:40:37.444Z,98246.88
2022-10-03T23:42:38.797Z,98113.03
2022-10-03T23:44:40.367Z,98248.53
2022-10-03T23:46:41.709Z,98251.06
2022-10-03T23:48:43.045Z,98245.09
2022-10-03T23:50:44.375Z,98244.28
2022-10-03T23:52:45.651Z,98239.16
2022-10-03T23:54:48.090Z,98250.19